Latest Weather Observations for Middle Percy Island

IDQ60801

Issued at 11:35 am EST Monday 15 September 2014 (issued every 30 minutes, with the page automatically refreshed every 10 minutes)

About weather observations | Map of weather stations | Latest weather observations for QLD | Other Formats
Station Details ID: 200001 Name: MIDDLE PERCY ISLAND Lat: -21.66 Lon: 150.27 Height: 208.7 m
Data from the previous 72 hours. | See also: Recent months at Middle Percy Island
Date/Time
EST
Temp
°C
App
Temp
°C
Dew
Point
Rel
Hum
%
Delta-T
°C
Wind Press
QNH
hPa
Press
MSL
hPa
Rain
since 9 am
mm
Dir
 
Spd
km/h
Gust
km/h
Spd
kts
Gust
kts
15/11:30am 21.5 19.5 15.6 69 3.5 SE 20 26 11 14 1018.4 1017.6 0.0
15/11:00am 22.5 21.2 16.8 70 3.5 SE 19 26 10 14 1018.9 1018.1 0.0
15/10:30am 21.0 19.2 15.5 71 3.3 SSE 19 26 10 14 1019.4 1018.6 0.0
15/10:00am 21.6 20.6 15.7 69 3.6 SE 15 20 8 11 1019.6 1018.8 0.0
15/09:30am 21.1 19.5 15.9 72 3.1 SSE 19 28 10 15 1019.8 1019.0 0.0
15/09:00am 20.9 19.6 15.7 72 3.1 SSE 17 24 9 13 1019.9 1019.1 0.0
15/08:30am 20.7 19.1 16.1 75 2.8 SSE 19 28 10 15 1019.9 1019.1 0.0
15/08:00am 19.7 18.5 16.0 79 2.2 SE 17 22 9 12 1019.8 1019.0 0.0
15/07:30am 19.3 18.0 15.8 80 2.1 SE 17 22 9 12 1019.6 1018.8 0.0
15/07:00am 18.9 17.7 16.1 84 1.7 SE 17 24 9 13 1019.3 1018.5 0.0
15/06:30am 18.6 17.4 16.0 85 1.6 SE 17 24 9 13 1019.1 1018.3 0.0
15/06:00am 18.5 16.9 15.9 85 1.6 SE 19 28 10 15 1019.0 1018.2 0.0
15/05:30am 18.6 17.0 16.0 85 1.6 SE 19 28 10 15 1018.5 1017.7 0.0
15/05:00am 18.4 16.7 15.8 85 1.5 SE 19 26 10 14 1018.4 1017.6 0.0
15/04:30am 18.4 17.2 16.0 86 1.4 SE 17 26 9 14 1018.1 1017.3 0.0
15/04:00am 18.3 16.6 15.7 85 1.5 SE 19 26 10 14 1017.9 1017.1 0.0
15/03:30am 18.3 17.0 15.7 85 1.5 SE 17 24 9 13 1017.9 1017.1 0.0
15/03:00am 18.4 16.6 15.6 84 1.7 SE 19 24 10 13 1018.0 1017.2 0.0
15/02:30am 18.7 16.4 15.6 82 1.8 ESE 22 30 12 16 1018.1 1017.3 0.0
15/02:00am 18.8 16.9 15.7 82 1.8 SE 20 30 11 16 1018.3 1017.5 0.0
15/01:30am 18.9 16.1 15.4 80 2.1 SE 24 32 13 17 1018.6 1017.8 0.0
15/01:00am 19.0 16.6 15.5 80 2.1 ESE 22 32 12 17 1018.8 1018.0 0.0
15/12:30am 19.0 17.1 15.7 81 2.0 ESE 20 28 11 15 1018.9 1018.1 0.0
15/12:00am 18.9 17.4 15.4 80 2.1 ESE 17 26 9 14 1019.4 1018.6 0.0
 
Date/Time
EST
Temp
°C
App
Temp
°C
Dew
Point
Rel
Hum
%
Delta-T
°C
Wind Press
QNH
hPa
Press
MSL
hPa
Rain
since 9 am
mm
Dir
 
Spd
km/h
Gust
km/h
Spd
kts
Gust
kts
14/11:30pm 19.0 17.5 15.3 79 2.2 ESE 17 30 9 16 1019.5 1018.7 0.0
14/11:00pm 18.9 18.2 15.4 80 2.1 ESE 13 22 7 12 1019.5 1018.7 0.0
14/10:30pm 19.2 16.5 15.5 79 2.2 ESE 24 35 13 19 1019.6 1018.8 0.0
14/10:00pm 19.1 16.4 15.6 80 2.1 ESE 24 35 13 19 1019.7 1018.9 0.0
14/09:30pm 19.0 17.7 15.9 82 1.9 ESE 17 32 9 17 1019.6 1018.8 0.0
14/09:00pm 18.9 17.4 15.4 80 2.1 ESE 17 28 9 15 1019.5 1018.7 0.0
14/08:30pm 19.0 16.8 16.0 83 1.8 ESE 22 35 12 19 1019.5 1018.7 0.0
14/08:00pm 19.0 15.8 16.2 84 1.7 ESE 28 39 15 21 1019.4 1018.6 0.0
14/07:30pm 19.0 15.2 16.6 86 1.5 SE 32 44 17 24 1019.2 1018.4 0.0
14/07:00pm 19.3 15.7 16.3 83 1.8 SE 30 39 16 21 1018.8 1018.0 0.0
14/06:30pm 19.6 16.9 16.6 83 1.8 SE 26 39 14 21 1018.6 1017.8 0.0
14/06:00pm 19.3 16.5 16.3 83 1.8 SE 26 35 14 19 1018.4 1017.6 0.0
14/05:30pm 19.6 17.5 17.2 86 1.5 SE 24 33 13 18 1018.4 1017.6 0.0
14/05:00pm 20.4 18.3 17.2 82 2.0 SE 24 33 13 18 1018.2 1017.4 0.0
14/04:30pm 21.2 18.8 17.4 79 2.4 SE 26 37 14 20 1018.0 1017.2 0.0
14/04:00pm 20.5 17.9 16.9 80 2.2 SE 26 37 14 20 1017.9 1017.1 0.0
14/03:30pm 20.3 16.5 16.7 80 2.2 SSE 32 43 17 23 1017.7 1016.9 0.0
14/03:00pm 20.6 16.8 16.8 79 2.3 SSE 32 43 17 23 1017.7 1016.9 0.0
14/02:30pm 21.7 17.7 17.7 78 2.5 SSE 35 48 19 26 1017.7 1016.9 0.0
14/02:00pm 21.8 18.4 17.6 77 2.6 SSE 32 44 17 24 1018.1 1017.3 0.0
14/01:30pm 22.3 19.4 17.0 72 3.3 SSE 28 41 15 22 1018.4 1017.6 0.0
14/01:00pm 22.5 18.8 16.1 67 3.9 SSE 30 41 16 22 1018.6 1017.8 0.0
14/12:30pm 22.4 18.4 16.2 68 3.8 SSE 32 44 17 24 1019.0 1018.2 0.0
14/12:00pm 22.5 18.5 16.3 68 3.8 SSE 32 44 17 24 1019.3 1018.5 0.0
14/11:30am 22.4 18.9 16.4 69 3.7 SSE 30 44 16 24 1019.6 1018.8 0.0
14/11:00am 21.6 17.3 15.9 70 3.4 SE 33 46 18 25 1019.8 1019.0 0.0
14/10:30am 21.7 17.7 15.1 66 3.9 SE 30 39 16 21 1020.1 1019.3 0.0
14/10:00am 22.1 19.1 15.9 68 3.8 SE 26 43 14 23 1020.2 1019.4 0.0
14/09:30am 21.7 18.5 16.2 71 3.3 SE 28 43 15 23 1020.4 1019.6 0.0
14/09:00am 21.2 17.7 15.5 70 3.4 SE 28 39 15 21 1020.2 1019.4 0.0
14/08:30am 20.8 16.9 15.4 71 3.2 SE 30 43 16 23 1020.2 1019.4 0.0
14/08:00am 19.8 16.7 15.7 77 2.5 SE 26 37 14 20 1020.1 1019.3 0.0
14/07:30am 19.2 15.2 14.2 73 2.9 SE 28 39 15 21 1019.9 1019.1 0.0
14/07:00am 18.8 16.2 16.0 84 1.7 SE 24 35 13 19 1019.7 1018.9 0.0
14/06:30am 18.8 15.7 15.7 82 1.8 SSE 26 37 14 20 1019.3 1018.5 0.0
14/06:00am 18.5 14.8 15.0 80 2.1 SE 28 37 15 20 1019.0 1018.2 0.0
14/05:30am 18.2 15.8 14.5 79 2.2 SE 20 32 11 17 1018.9 1018.1 0.0
14/05:00am 18.5 14.5 14.2 76 2.5 SSE 28 37 15 20 1018.6 1017.8 0.0
14/04:30am 18.5 14.5 14.0 75 2.6 SE 28 39 15 21 1018.6 1017.8 0.0
14/04:00am 18.5 14.3 14.6 78 2.3 SE 30 43 16 23 1018.4 1017.6 0.0
14/03:30am 18.6 14.8 14.7 78 2.3 SE 28 39 15 21 1018.5 1017.7 0.0
14/03:00am 18.8 15.0 14.7 77 2.4 SE 28 41 15 22 1018.7 1017.9 0.0
14/02:30am 18.5 16.0 15.2 81 1.9 SE 22 32 12 17 1019.2 1018.4 0.0
14/02:00am 18.4 15.2 15.3 82 1.8 SE 26 35 14 19 1019.5 1018.7 0.0
14/01:30am 18.4 16.1 15.6 84 1.7 SE 22 35 12 19 1019.9 1019.1 0.0
14/01:00am 18.3 15.5 15.4 83 1.7 SE 24 33 13 18 1020.1 1019.3 0.0
14/12:30am 18.4 15.7 15.5 83 1.7 SE 24 39 13 21 1020.5 1019.7 0.0
14/12:00am 18.6 15.7 16.0 85 1.6 SE 26 41 14 22 1020.7 1019.9 0.0
 
Date/Time
EST
Temp
°C
App
Temp
°C
Dew
Point
Rel
Hum
%
Delta-T
°C
Wind Press
QNH
hPa
Press
MSL
hPa
Rain
since 9 am
mm
Dir
 
Spd
km/h
Gust
km/h
Spd
kts
Gust
kts
13/11:30pm 18.8 15.5 16.0 84 1.7 SE 28 41 15 22 1021.0 1020.2 0.0
13/11:00pm 18.7 15.5 16.3 86 1.4 SE 28 43 15 23 1020.9 1020.1 0.0
13/10:30pm 18.7 15.0 16.1 85 1.6 SE 30 43 16 23 1020.9 1020.1 0.0
13/10:00pm 18.7 14.7 16.3 86 1.4 SE 32 44 17 24 1021.0 1020.2 0.0
13/09:30pm 18.5 16.2 16.7 89 1.1 SE 24 43 13 23 1021.2 1020.4 0.0
13/09:00pm 18.7 15.2 16.5 87 1.3 SE 30 41 16 22 1021.3 1020.5 0.0
13/08:30pm 18.6 15.5 16.6 88 1.2 SE 28 39 15 21 1021.3 1020.5 0.0
13/08:00pm 18.7 16.0 16.5 87 1.3 SE 26 39 14 21 1021.1 1020.3 0.0
13/07:30pm 18.7 15.8 16.1 85 1.6 SSE 26 35 14 19 1020.9 1020.1 0.0
13/07:00pm 18.8 15.5 16.0 84 1.7 SE 28 39 15 21 1020.6 1019.8 0.0
13/06:30pm 18.6 16.0 16.0 85 1.6 SE 24 35 13 19 1020.1 1019.3 0.0
13/06:00pm 18.7 15.2 16.5 87 1.3 SE 30 43 16 23 1019.7 1018.9 0.0
13/05:30pm 19.0 15.9 16.6 86 1.5 SE 28 43 15 23 1019.6 1018.8 0.0
13/05:00pm 19.5 16.5 16.7 84 1.7 SE 28 41 15 22 1019.6 1018.8 0.0
13/04:30pm 19.9 16.8 16.5 81 2.1 SE 28 41 15 22 1019.6 1018.8 0.0
13/04:00pm 20.5 18.0 17.1 81 2.1 SSE 26 37 14 20 1019.5 1018.7 0.0
13/03:30pm 20.5 17.6 17.1 81 2.1 SSE 28 39 15 21 1019.6 1018.8 0.0
13/03:00pm 21.4 18.9 17.0 76 2.7 SE 26 39 14 21 1019.6 1018.8 0.0
13/02:30pm 22.3 20.4 17.7 75 2.9 SE 24 33 13 18 1019.8 1019.0 0.0
13/02:00pm 22.7 20.5 16.0 66 4.1 SE 22 32 12 17 1020.2 1019.4 0.0
13/01:30pm 22.5 19.6 16.1 67 3.9 SE 26 37 14 20 1020.7 1019.9 0.0
13/01:00pm 22.4 19.7 15.5 65 4.2 SSE 24 35 13 19 1021.0 1020.2 0.0
13/12:30pm 22.6 20.4 15.9 66 4.1 SE 22 32 12 17 1021.0 1020.2 0.0
13/12:00pm 22.0 19.4 15.8 68 3.7 SE 24 32 13 17 1021.4 1020.6 0.0
13/11:30am 22.9 21.1 16.9 69 3.7 SSE 22 32 12 17 1021.8 1021.0 0.0
13/11:00am 21.6 19.3 16.6 73 3.1 SSE 24 33 13 18 1022.0 1021.2 0.0
13/10:30am 21.2 19.1 17.2 78 2.5 SSE 24 33 13 18 1022.1 1021.3 0.0
13/10:00am 20.9 18.5 16.5 76 2.7 SSE 24 33 13 18 1021.9 1021.1 0.0
13/09:30am 22.5 21.6 18.3 77 2.7 SE 20 32 11 17 1021.9 1021.1 0.0
13/09:00am 21.7 20.3 17.9 79 2.4 SE 22 32 12 17 1021.8 1021.0 0.0
13/08:30am 21.4 20.5 18.2 82 2.0 SE 20 32 11 17 1021.6 1020.8 0.0
13/08:00am 20.9 19.5 17.9 83 1.9 ESE 22 30 12 16 1021.2 1020.4 0.0
13/07:30am 20.1 19.2 18.1 88 1.2 SE 20 28 11 15 1020.9 1020.1 0.0
13/07:00am 20.0 19.6 18.1 89 1.2 SE 17 24 9 13 1020.6 1019.8 0.0
13/06:30am 19.3 19.7 18.1 93 0.7 SE 13 19 7 10 1020.0 1019.2 0.0
13/06:00am 19.0 20.1 18.0 94 0.6 ESE 9 15 5 8 1019.6 1018.8 0.0
13/05:30am 19.2 20.5 18.4 95 0.5 ESE 9 15 5 8 1019.4 1018.6 0.0
13/05:00am 19.2 20.8 18.2 94 0.6 E 7 15 4 8 1019.0 1018.2 0.0
13/04:30am 19.2 20.8 18.2 94 0.6 E 7 15 4 8 1019.0 1018.2 0.0
13/04:00am 19.4 20.5 18.1 92 0.8 E 9 13 5 7 1019.0 1018.2 0.0
13/03:30am 19.5 21.1 18.2 92 0.8 E 7 13 4 7 1019.0 1018.2 0.0
13/03:00am 19.4 20.9 18.1 92 0.8 E 7 13 4 7 1018.9 1018.1 0.0
13/02:30am 19.5 21.1 18.2 92 0.8 E 7 19 4 10 1019.1 1018.3 0.0
13/02:00am 19.6 20.1 18.3 92 0.8 ENE 13 22 7 12 1019.0 1018.2 0.0
13/01:30am 19.5 19.2 18.2 92 0.8 ENE 17 26 9 14 1019.1 1018.3 0.0
13/01:00am 19.6 19.3 18.3 92 0.8 ENE 17 28 9 15 1019.3 1018.5 0.0
13/12:30am 19.6 19.4 18.6 94 0.6 ENE 17 24 9 13 1019.6 1018.8 0.0
13/12:00am 19.5 18.3 18.3 93 0.7 ENE 22 33 12 18 1019.5 1018.7 0.0
 
Date/Time
EST
Temp
°C
App
Temp
°C
Dew
Point
Rel
Hum
%
Delta-T
°C
Wind Press
QNH
hPa
Press
MSL
hPa
Rain
since 9 am
mm
Dir
 
Spd
km/h
Gust
km/h
Spd
kts
Gust
kts
12/11:30pm 19.5 19.3 18.5 94 0.6 ENE 17 26 9 14 1020.2 1019.4 0.0
12/11:00pm 19.5 19.7 18.5 94 0.6 ENE 15 28 8 15 1020.6 1019.8 0.0
12/10:30pm 19.6 19.9 18.8 95 0.5 ENE 15 22 8 12 1020.6 1019.8 0.0
12/10:00pm 19.4 20.4 18.6 95 0.5 ENE 11 20 6 11 1020.8 1020.0 0.0
12/09:30pm 19.4 20.0 18.6 95 0.5 ENE 13 20 7 11 1020.8 1020.0 0.0
12/09:00pm 19.6 20.2 18.6 94 0.6 ENE 13 20 7 11 1020.6 1019.8 0.0
12/08:30pm 19.7 19.9 18.5 93 0.8 ENE 15 22 8 12 1020.2 1019.4 0.0
12/08:00pm 19.8 20.5 18.8 94 0.6 ENE 13 20 7 11 1020.2 1019.4 0.0
12/07:30pm 19.9 20.3 18.9 94 0.6 ENE 15 20 8 11 1020.1 1019.3 0.0
12/07:00pm 19.7 20.3 18.7 94 0.6 ENE 13 19 7 10 1019.7 1018.9 0.0
12/06:30pm 19.6 19.7 18.4 93 0.8 ENE 15 22 8 12 1019.4 1018.6 0.0
12/06:00pm 19.9 20.5 18.7 93 0.8 ENE 13 22 7 12 1019.2 1018.4 0.0
12/05:30pm 20.2 20.3 18.3 89 1.2 ENE 15 20 8 11 1018.9 1018.1 0.0
12/05:00pm 20.9 21.8 18.3 85 1.6 E 11 19 6 10 1018.8 1018.0 0.0
12/04:30pm 21.2 22.0 18.2 83 1.9 NE 11 19 6 10 1018.7 1017.9 0.0
12/04:00pm 21.8 22.2 18.2 80 2.3 NE 13 19 7 10 1018.6 1017.8 0.0
12/03:30pm 22.3 23.4 18.1 77 2.6 E 9 15 5 8 1018.5 1017.7 0.0
12/03:00pm 22.1 23.5 18.7 81 2.2 E 9 17 5 9 1018.6 1017.8 0.0
12/02:30pm 21.5 21.3 18.5 83 1.9 ESE 17 22 9 12 1018.5 1017.7 0.0
12/02:00pm 22.3 22.9 18.5 79 2.4 ESE 13 19 7 10 1018.8 1018.0 0.0
12/01:30pm 23.2 24.3 17.9 72 3.3 ENE 9 15 5 8 1019.0 1018.2 0.0
12/01:00pm 22.9 23.9 17.8 73 3.2 ENE 9 17 5 9 1019.4 1018.6 0.0
12/12:30pm 23.8 25.4 19.1 75 3.0 E 9 15 5 8 1019.7 1018.9 0.0
12/12:00pm 22.2 23.0 18.2 78 2.5 SE 11 17 6 9 1020.0 1019.2 0.0

Other Formats:

Comma delimited format used in spreadsheet applications
http://www.bom.gov.au/fwo/IDQ60801/IDQ60801.94372.axf

JavaScript Object Notation format (JSON) in row-major order
http://www.bom.gov.au/fwo/IDQ60801/IDQ60801.94372.json